Aérodrome :
LOGIN :

S'inscrire | Disclaimer

   EN    FR    IT 

 










Légende :    VFR   VFR Marginal   IFR   IFR Intensif   IFR Très Intensif
Visi : 
Plafond : 
>= 8 km
>= 3000ft
5 à 8 km
1000 à 3000 ft
1500m à 5 km
500 à 1000 ft
800 à 1500m
200 à 500 ft
< 800m
< 200 ft
Symboles :   Orages  Brouillard  Fortes neiges  Fortes précipitations  Vent > 20 kt
SIGMETs :   Divers  Orages  Givrage  Turbulence  Onde Orograph.  Cendres Volcan.






- Altitude de l'aérodrome : 1260 ft
- Code IATA : LDE


LFBT - Tarbes / Ossun

DERNIER METAR :
  • 221100Z AUTO VRB04KT 9999 SCT033 OVC039 21/14 Q1015 TEMPO 4000 SHRA BKN030TCU

METARs EXPIRÉS :
  • 221030Z AUTO 29004KT 190V350 9999 BKN032 20/14 Q1015 TEMPO 4000 SHRA BKN030TCU
  • 221000Z AUTO 28006KT 220V350 9999 BKN031 BKN039 20/12 Q1015 TEMPO 4000 SHRA BKN030TCU
  • 220930Z AUTO 31006KT 240V340 9999 BKN028 BKN033 18/12 Q1015 TEMPO 4000 SHRA BKN030TCU
  • 220900Z AUTO 29008KT 260V320 9999 SCT029 BKN040 18/13 Q1015 TEMPO 4000 SHRA BKN030TCU
  • 220830Z AUTO 28008KT 220V310 CAVOK 18/12 Q1015 TEMPO 4000 SHRA BKN030TCU

TAF TAF LFBT
Valide du 22 à 06h jusqu'au 23 à 06h UTC


220500Z 2206/2306 VRB04KT 9999 BKN035
TEMPO 2210/2221 4000 SHRA BKN030TCU
PROB40
TEMPO 2213/2218 VRB15G30KT 3000 TSRA BKN020CB
BECMG 2221/2223 BKN020



MET'MAP, la Météo Aéronautique d'un coup d'oeil ! - Copyright ORBIFLY Décembre 2007 - Disclaimer

ORBIFLY MET'MAP TEAM :

Programmation & Développement : Alexandra Zaïnal
Sur une idée originale de : Baudouin d'Aumeries
Assistance à la programmation : Marc-Olivier Méhu
Soutien technique & logistique : Manuel Goepfert

Contact : metmap@orbifly.com




SOURCES & CREDITS :

   NOAA